sensor_id;sensor_type;location;lat;lon;timestamp;P1;durP1;ratioP1;P2;durP2;ratioP2
74158;SDS011;62511;47.970;11.774;2022-08-06T00:01:48;3.58;;;2.28;;
74158;SDS011;62511;47.970;11.774;2022-08-06T00:04:14;5.30;;;2.47;;
74158;SDS011;62511;47.970;11.774;2022-08-06T00:06:40;3.55;;;2.88;;
74158;SDS011;62511;47.970;11.774;2022-08-06T00:09:06;4.63;;;3.10;;
74158;SDS011;62511;47.970;11.774;2022-08-06T00:11:32;3.65;;;2.63;;
74158;SDS011;62511;47.970;11.774;2022-08-06T00:13:58;5.25;;;3.20;;
74158;SDS011;62511;47.970;11.774;2022-08-06T00:16:24;3.65;;;2.90;;
74158;SDS011;62511;47.970;11.774;2022-08-06T00:18:50;4.78;;;3.38;;
74158;SDS011;62511;47.970;11.774;2022-08-06T00:21:16;5.65;;;3.30;;
74158;SDS011;62511;47.970;11.774;2022-08-06T00:23:42;4.60;;;2.80;;
74158;SDS011;62511;47.970;11.774;2022-08-06T00:26:08;4.15;;;2.65;;
74158;SDS011;62511;47.970;11.774;2022-08-06T00:28:34;3.63;;;2.60;;
74158;SDS011;62511;47.970;11.774;2022-08-06T00:31:01;3.35;;;2.72;;
74158;SDS011;62511;47.970;11.774;2022-08-06T00:33:28;3.55;;;2.63;;
74158;SDS011;62511;47.970;11.774;2022-08-06T00:35:54;5.40;;;2.95;;
74158;SDS011;62511;47.970;11.774;2022-08-06T00:38:20;3.67;;;2.63;;
74158;SDS011;62511;47.970;11.774;2022-08-06T00:40:46;3.63;;;2.55;;
74158;SDS011;62511;47.970;11.774;2022-08-06T00:43:12;2.92;;;2.30;;
74158;SDS011;62511;47.970;11.774;2022-08-06T00:45:38;2.78;;;2.13;;
74158;SDS011;62511;47.970;11.774;2022-08-06T00:48:04;2.90;;;2.05;;
74158;SDS011;62511;47.970;11.774;2022-08-06T00:50:31;2.97;;;2.20;;
74158;SDS011;62511;47.970;11.774;2022-08-06T00:52:57;3.17;;;2.13;;
74158;SDS011;62511;47.970;11.774;2022-08-06T00:55:24;3.03;;;2.08;;
74158;SDS011;62511;47.970;11.774;2022-08-06T00:57:50;3.97;;;2.25;;
74158;SDS011;62511;47.970;11.774;2022-08-06T01:00:16;3.22;;;2.40;;
74158;SDS011;62511;47.970;11.774;2022-08-06T01:02:42;3.22;;;2.38;;
74158;SDS011;62511;47.970;11.774;2022-08-06T01:05:08;3.33;;;1.80;;
74158;SDS011;62511;47.970;11.774;2022-08-06T01:07:34;4.32;;;2.60;;
74158;SDS011;62511;47.970;11.774;2022-08-06T01:10:00;3.10;;;2.33;;
74158;SDS011;62511;47.970;11.774;2022-08-06T01:12:26;4.85;;;2.55;;
74158;SDS011;62511;47.970;11.774;2022-08-06T01:14:53;3.80;;;2.17;;
74158;SDS011;62511;47.970;11.774;2022-08-06T01:17:30;3.17;;;2.47;;
74158;SDS011;62511;47.970;11.774;2022-08-06T01:20:02;3.13;;;2.25;;
74158;SDS011;62511;47.970;11.774;2022-08-06T01:28:05;3.08;;;2.38;;
74158;SDS011;62511;47.970;11.774;2022-08-06T01:30:37;4.03;;;2.58;;
74158;SDS011;62511;47.970;11.774;2022-08-06T01:33:16;4.03;;;2.72;;
74158;SDS011;62511;47.970;11.774;2022-08-06T01:35:47;3.55;;;2.53;;
74158;SDS011;62511;47.970;11.774;2022-08-06T01:38:26;3.80;;;2.60;;
74158;SDS011;62511;47.970;11.774;2022-08-06T01:40:55;4.13;;;2.60;;
74158;SDS011;62511;47.970;11.774;2022-08-06T01:43:23;4.18;;;2.40;;
74158;SDS011;62511;47.970;11.774;2022-08-06T01:50:45;3.88;;;1.98;;
74158;SDS011;62511;47.970;11.774;2022-08-06T01:53:13;3.00;;;2.30;;
74158;SDS011;62511;47.970;11.774;2022-08-06T01:55:42;3.92;;;2.38;;
74158;SDS011;62511;47.970;11.774;2022-08-06T01:58:09;4.47;;;2.60;;
74158;SDS011;62511;47.970;11.774;2022-08-06T02:03:03;3.03;;;2.38;;
74158;SDS011;62511;47.970;11.774;2022-08-06T02:05:31;2.45;;;2.13;;
74158;SDS011;62511;47.970;11.774;2022-08-06T02:07:58;3.25;;;2.20;;
74158;SDS011;62511;47.970;11.774;2022-08-06T02:10:25;5.57;;;2.70;;
74158;SDS011;62511;47.970;11.774;2022-08-06T02:12:53;4.88;;;2.60;;
74158;SDS011;62511;47.970;11.774;2022-08-06T02:15:24;2.85;;;2.50;;
74158;SDS011;62511;47.970;11.774;2022-08-06T02:17:53;3.92;;;2.45;;
74158;SDS011;62511;47.970;11.774;2022-08-06T02:20:24;3.63;;;2.33;;
74158;SDS011;62511;47.970;11.774;2022-08-06T02:22:51;4.22;;;2.67;;
74158;SDS011;62511;47.970;11.774;2022-08-06T02:25:17;4.80;;;2.85;;
74158;SDS011;62511;47.970;11.774;2022-08-06T02:27:45;3.67;;;2.45;;
74158;SDS011;62511;47.970;11.774;2022-08-06T02:30:11;4.45;;;2.95;;
74158;SDS011;62511;47.970;11.774;2022-08-06T02:32:38;3.85;;;2.63;;
74158;SDS011;62511;47.970;11.774;2022-08-06T02:35:04;4.32;;;2.63;;
74158;SDS011;62511;47.970;11.774;2022-08-06T02:37:42;4.72;;;2.80;;
74158;SDS011;62511;47.970;11.774;2022-08-06T02:40:11;4.55;;;2.80;;
74158;SDS011;62511;47.970;11.774;2022-08-06T02:42:39;3.72;;;2.70;;
74158;SDS011;62511;47.970;11.774;2022-08-06T02:45:08;5.32;;;3.00;;
74158;SDS011;62511;47.970;11.774;2022-08-06T02:50:17;3.60;;;2.40;;
74158;SDS011;62511;47.970;11.774;2022-08-06T02:55:11;3.80;;;2.80;;
74158;SDS011;62511;47.970;11.774;2022-08-06T02:57:38;4.00;;;3.15;;
74158;SDS011;62511;47.970;11.774;2022-08-06T03:00:06;4.55;;;2.97;;
74158;SDS011;62511;47.970;11.774;2022-08-06T03:02:33;4.50;;;3.05;;
74158;SDS011;62511;47.970;11.774;2022-08-06T03:05:01;4.85;;;3.13;;
74158;SDS011;62511;47.970;11.774;2022-08-06T03:07:28;4.03;;;2.55;;
74158;SDS011;62511;47.970;11.774;2022-08-06T03:09:56;4.50;;;3.05;;
74158;SDS011;62511;47.970;11.774;2022-08-06T03:12:22;4.70;;;2.75;;
74158;SDS011;62511;47.970;11.774;2022-08-06T03:14:48;5.40;;;2.83;;
74158;SDS011;62511;47.970;11.774;2022-08-06T03:17:15;5.22;;;2.97;;
74158;SDS011;62511;47.970;11.774;2022-08-06T03:19:43;6.20;;;3.22;;
74158;SDS011;62511;47.970;11.774;2022-08-06T03:22:10;3.33;;;2.75;;
74158;SDS011;62511;47.970;11.774;2022-08-06T03:24:37;3.90;;;2.80;;
74158;SDS011;62511;47.970;11.774;2022-08-06T03:27:04;4.38;;;2.75;;
74158;SDS011;62511;47.970;11.774;2022-08-06T03:29:32;4.82;;;3.17;;
74158;SDS011;62511;47.970;11.774;2022-08-06T03:32:01;3.63;;;2.80;;
74158;SDS011;62511;47.970;11.774;2022-08-06T03:34:28;5.45;;;2.85;;
74158;SDS011;62511;47.970;11.774;2022-08-06T03:36:55;5.40;;;3.33;;
74158;SDS011;62511;47.970;11.774;2022-08-06T03:39:22;3.83;;;2.83;;
74158;SDS011;62511;47.970;11.774;2022-08-06T03:41:49;4.47;;;3.08;;
74158;SDS011;62511;47.970;11.774;2022-08-06T03:44:15;4.93;;;3.30;;
74158;SDS011;62511;47.970;11.774;2022-08-06T03:46:58;4.20;;;3.10;;
74158;SDS011;62511;47.970;11.774;2022-08-06T03:49:29;4.22;;;2.85;;
74158;SDS011;62511;47.970;11.774;2022-08-06T03:51:56;4.88;;;2.63;;
74158;SDS011;62511;47.970;11.774;2022-08-06T03:54:25;4.40;;;2.60;;
74158;SDS011;62511;47.970;11.774;2022-08-06T03:56:52;4.13;;;2.20;;
74158;SDS011;62511;47.970;11.774;2022-08-06T03:59:19;4.93;;;2.63;;
74158;SDS011;62511;47.970;11.774;2022-08-06T04:01:46;5.00;;;2.55;;
74158;SDS011;62511;47.970;11.774;2022-08-06T04:04:14;3.05;;;2.13;;
74158;SDS011;62511;47.970;11.774;2022-08-06T04:06:41;3.95;;;2.30;;
74158;SDS011;62511;47.970;11.774;2022-08-06T04:09:08;3.47;;;2.47;;
74158;SDS011;62511;47.970;11.774;2022-08-06T04:11:34;3.88;;;2.90;;
74158;SDS011;62511;47.970;11.774;2022-08-06T04:14:01;3.60;;;2.88;;
74158;SDS011;62511;47.970;11.774;2022-08-06T04:16:28;4.35;;;3.15;;
74158;SDS011;62511;47.970;11.774;2022-08-06T04:18:54;4.45;;;3.08;;
74158;SDS011;62511;47.970;11.774;2022-08-06T04:21:21;5.78;;;3.92;;
74158;SDS011;62511;47.970;11.774;2022-08-06T04:23:48;4.35;;;3.03;;
74158;SDS011;62511;47.970;11.774;2022-08-06T04:26:15;6.07;;;3.35;;
74158;SDS011;62511;47.970;11.774;2022-08-06T04:28:43;4.75;;;3.28;;
74158;SDS011;62511;47.970;11.774;2022-08-06T04:31:11;5.72;;;3.42;;
74158;SDS011;62511;47.970;11.774;2022-08-06T04:33:38;7.65;;;3.75;;
74158;SDS011;62511;47.970;11.774;2022-08-06T04:36:04;5.97;;;3.63;;
74158;SDS011;62511;47.970;11.774;2022-08-06T04:38:31;7.57;;;4.10;;
74158;SDS011;62511;47.970;11.774;2022-08-06T04:40:58;7.78;;;4.25;;
74158;SDS011;62511;47.970;11.774;2022-08-06T04:43:24;8.35;;;4.45;;
74158;SDS011;62511;47.970;11.774;2022-08-06T04:45:50;10.93;;;5.20;;
74158;SDS011;62511;47.970;11.774;2022-08-06T04:48:17;10.65;;;4.60;;
74158;SDS011;62511;47.970;11.774;2022-08-06T04:50:43;13.60;;;6.28;;
74158;SDS011;62511;47.970;11.774;2022-08-06T04:53:10;11.18;;;5.50;;
74158;SDS011;62511;47.970;11.774;2022-08-06T04:55:36;10.82;;;4.72;;
74158;SDS011;62511;47.970;11.774;2022-08-06T04:58:04;8.57;;;4.55;;
74158;SDS011;62511;47.970;11.774;2022-08-06T05:00:30;10.52;;;5.68;;
74158;SDS011;62511;47.970;11.774;2022-08-06T05:02:57;9.15;;;5.20;;
74158;SDS011;62511;47.970;11.774;2022-08-06T05:05:23;10.75;;;5.15;;
74158;SDS011;62511;47.970;11.774;2022-08-06T05:07:50;11.27;;;5.95;;
74158;SDS011;62511;47.970;11.774;2022-08-06T05:10:17;12.85;;;6.72;;
74158;SDS011;62511;47.970;11.774;2022-08-06T05:12:45;12.43;;;5.57;;
74158;SDS011;62511;47.970;11.774;2022-08-06T05:17:41;13.55;;;6.68;;
74158;SDS011;62511;47.970;11.774;2022-08-06T05:20:16;13.90;;;6.63;;
74158;SDS011;62511;47.970;11.774;2022-08-06T05:22:43;14.02;;;7.55;;
74158;SDS011;62511;47.970;11.774;2022-08-06T05:25:10;14.75;;;7.15;;
74158;SDS011;62511;47.970;11.774;2022-08-06T05:27:36;14.55;;;7.28;;
74158;SDS011;62511;47.970;11.774;2022-08-06T05:30:04;14.70;;;7.18;;
74158;SDS011;62511;47.970;11.774;2022-08-06T05:32:30;18.10;;;8.05;;
74158;SDS011;62511;47.970;11.774;2022-08-06T05:34:56;13.80;;;7.50;;
74158;SDS011;62511;47.970;11.774;2022-08-06T05:37:22;13.38;;;7.43;;
74158;SDS011;62511;47.970;11.774;2022-08-06T05:39:48;15.95;;;7.35;;
74158;SDS011;62511;47.970;11.774;2022-08-06T05:42:15;15.40;;;7.60;;
74158;SDS011;62511;47.970;11.774;2022-08-06T05:44:41;14.57;;;7.25;;
74158;SDS011;62511;47.970;11.774;2022-08-06T05:47:12;16.02;;;7.78;;
74158;SDS011;62511;47.970;11.774;2022-08-06T05:49:41;15.93;;;7.10;;
74158;SDS011;62511;47.970;11.774;2022-08-06T05:52:19;15.48;;;7.40;;
74158;SDS011;62511;47.970;11.774;2022-08-06T05:54:56;14.52;;;7.07;;
74158;SDS011;62511;47.970;11.774;2022-08-06T05:57:28;20.88;;;8.45;;
74158;SDS011;62511;47.970;11.774;2022-08-06T06:00:01;15.35;;;7.85;;
74158;SDS011;62511;47.970;11.774;2022-08-06T06:02:32;13.05;;;6.55;;
74158;SDS011;62511;47.970;11.774;2022-08-06T06:04:58;14.00;;;7.38;;
74158;SDS011;62511;47.970;11.774;2022-08-06T06:07:26;11.50;;;6.38;;
74158;SDS011;62511;47.970;11.774;2022-08-06T06:09:53;10.80;;;6.13;;
74158;SDS011;62511;47.970;11.774;2022-08-06T06:12:20;12.15;;;6.10;;
74158;SDS011;62511;47.970;11.774;2022-08-06T06:14:47;10.93;;;5.80;;
74158;SDS011;62511;47.970;11.774;2022-08-06T06:19:46;12.27;;;6.20;;
74158;SDS011;62511;47.970;11.774;2022-08-06T06:22:23;12.80;;;7.82;;
74158;SDS011;62511;47.970;11.774;2022-08-06T06:24:58;10.25;;;5.80;;
74158;SDS011;62511;47.970;11.774;2022-08-06T06:27:37;10.15;;;5.43;;
74158;SDS011;62511;47.970;11.774;2022-08-06T06:35:08;8.27;;;4.55;;
74158;SDS011;62511;47.970;11.774;2022-08-06T06:40:15;8.00;;;4.53;;
74158;SDS011;62511;47.970;11.774;2022-08-06T06:45:21;4.25;;;2.65;;
74158;SDS011;62511;47.970;11.774;2022-08-06T06:47:57;2.72;;;2.25;;
74158;SDS011;62511;47.970;11.774;2022-08-06T06:50:32;3.38;;;2.47;;
74158;SDS011;62511;47.970;11.774;2022-08-06T06:52:59;4.18;;;3.00;;
74158;SDS011;62511;47.970;11.774;2022-08-06T06:55:36;3.85;;;2.30;;
74158;SDS011;62511;47.970;11.774;2022-08-06T06:58:07;2.88;;;2.08;;
74158;SDS011;62511;47.970;11.774;2022-08-06T07:00:34;2.72;;;2.30;;
74158;SDS011;62511;47.970;11.774;2022-08-06T07:03:01;2.92;;;2.17;;
74158;SDS011;62511;47.970;11.774;2022-08-06T07:05:27;3.10;;;1.85;;
74158;SDS011;62511;47.970;11.774;2022-08-06T07:07:54;4.00;;;2.20;;
74158;SDS011;62511;47.970;11.774;2022-08-06T07:12:47;3.72;;;2.35;;
74158;SDS011;62511;47.970;11.774;2022-08-06T07:15:14;2.80;;;2.28;;
74158;SDS011;62511;47.970;11.774;2022-08-06T07:17:42;4.07;;;2.78;;
74158;SDS011;62511;47.970;11.774;2022-08-06T07:20:09;4.32;;;2.95;;
74158;SDS011;62511;47.970;11.774;2022-08-06T07:22:36;5.05;;;3.22;;
74158;SDS011;62511;47.970;11.774;2022-08-06T07:25:05;4.68;;;3.63;;
74158;SDS011;62511;47.970;11.774;2022-08-06T07:27:36;5.07;;;3.80;;
74158;SDS011;62511;47.970;11.774;2022-08-06T07:30:03;7.22;;;4.70;;
74158;SDS011;62511;47.970;11.774;2022-08-06T07:32:31;8.38;;;6.20;;
74158;SDS011;62511;47.970;11.774;2022-08-06T07:34:59;9.70;;;6.00;;
74158;SDS011;62511;47.970;11.774;2022-08-06T07:37:25;10.73;;;6.97;;
74158;SDS011;62511;47.970;11.774;2022-08-06T07:39:52;11.93;;;8.02;;
74158;SDS011;62511;47.970;11.774;2022-08-06T07:42:19;11.82;;;8.32;;
74158;SDS011;62511;47.970;11.774;2022-08-06T07:44:47;14.75;;;9.75;;
74158;SDS011;62511;47.970;11.774;2022-08-06T07:47:15;13.13;;;8.88;;
74158;SDS011;62511;47.970;11.774;2022-08-06T07:49:45;15.05;;;9.80;;
74158;SDS011;62511;47.970;11.774;2022-08-06T07:52:12;16.52;;;10.35;;
74158;SDS011;62511;47.970;11.774;2022-08-06T07:54:39;15.45;;;9.50;;
74158;SDS011;62511;47.970;11.774;2022-08-06T07:57:05;19.25;;;10.77;;
74158;SDS011;62511;47.970;11.774;2022-08-06T07:59:32;13.43;;;9.00;;
74158;SDS011;62511;47.970;11.774;2022-08-06T08:01:58;14.98;;;8.90;;
74158;SDS011;62511;47.970;11.774;2022-08-06T08:04:26;15.55;;;9.68;;
74158;SDS011;62511;47.970;11.774;2022-08-06T08:07:11;15.10;;;9.00;;
74158;SDS011;62511;47.970;11.774;2022-08-06T08:09:37;16.83;;;9.70;;
74158;SDS011;62511;47.970;11.774;2022-08-06T08:12:04;17.90;;;9.68;;
74158;SDS011;62511;47.970;11.774;2022-08-06T08:14:31;16.98;;;9.65;;
74158;SDS011;62511;47.970;11.774;2022-08-06T08:16:57;18.80;;;10.85;;
74158;SDS011;62511;47.970;11.774;2022-08-06T08:19:24;18.13;;;10.70;;
74158;SDS011;62511;47.970;11.774;2022-08-06T08:24:23;12.40;;;8.30;;
74158;SDS011;62511;47.970;11.774;2022-08-06T08:26:50;14.15;;;8.80;;
74158;SDS011;62511;47.970;11.774;2022-08-06T08:29:16;10.63;;;6.65;;
74158;SDS011;62511;47.970;11.774;2022-08-06T08:31:42;15.45;;;9.00;;
74158;SDS011;62511;47.970;11.774;2022-08-06T08:34:08;15.68;;;8.05;;
74158;SDS011;62511;47.970;11.774;2022-08-06T08:36:36;14.35;;;8.32;;
74158;SDS011;62511;47.970;11.774;2022-08-06T08:39:02;16.77;;;9.18;;
74158;SDS011;62511;47.970;11.774;2022-08-06T08:41:30;8.48;;;5.22;;
74158;SDS011;62511;47.970;11.774;2022-08-06T08:44:04;8.60;;;5.65;;
74158;SDS011;62511;47.970;11.774;2022-08-06T08:46:37;8.10;;;5.45;;
74158;SDS011;62511;47.970;11.774;2022-08-06T08:49:04;7.00;;;4.88;;
74158;SDS011;62511;47.970;11.774;2022-08-06T08:51:32;8.50;;;5.75;;
74158;SDS011;62511;47.970;11.774;2022-08-06T08:54:00;10.60;;;6.00;;
74158;SDS011;62511;47.970;11.774;2022-08-06T08:56:27;7.72;;;5.13;;
74158;SDS011;62511;47.970;11.774;2022-08-06T08:58:53;9.05;;;5.00;;
74158;SDS011;62511;47.970;11.774;2022-08-06T09:01:20;7.90;;;5.38;;
74158;SDS011;62511;47.970;11.774;2022-08-06T09:03:46;8.00;;;5.43;;
74158;SDS011;62511;47.970;11.774;2022-08-06T09:06:12;10.73;;;6.25;;
74158;SDS011;62511;47.970;11.774;2022-08-06T09:08:39;8.95;;;5.50;;
74158;SDS011;62511;47.970;11.774;2022-08-06T09:11:05;8.50;;;5.90;;
74158;SDS011;62511;47.970;11.774;2022-08-06T09:13:31;7.80;;;5.22;;
74158;SDS011;62511;47.970;11.774;2022-08-06T09:15:58;9.93;;;6.57;;
74158;SDS011;62511;47.970;11.774;2022-08-06T09:18:24;10.70;;;7.03;;
74158;SDS011;62511;47.970;11.774;2022-08-06T09:20:51;8.55;;;5.57;;
74158;SDS011;62511;47.970;11.774;2022-08-06T09:23:17;10.15;;;6.22;;
74158;SDS011;62511;47.970;11.774;2022-08-06T09:25:44;10.43;;;6.50;;
74158;SDS011;62511;47.970;11.774;2022-08-06T09:28:25;11.40;;;7.20;;
74158;SDS011;62511;47.970;11.774;2022-08-06T09:31:05;10.88;;;7.57;;
74158;SDS011;62511;47.970;11.774;2022-08-06T09:33:32;11.07;;;7.13;;
74158;SDS011;62511;47.970;11.774;2022-08-06T09:36:08;13.40;;;7.95;;
74158;SDS011;62511;47.970;11.774;2022-08-06T09:38:54;9.10;;;6.60;;
74158;SDS011;62511;47.970;11.774;2022-08-06T09:41:21;10.10;;;6.45;;
74158;SDS011;62511;47.970;11.774;2022-08-06T09:46:13;13.68;;;8.27;;
74158;SDS011;62511;47.970;11.774;2022-08-06T09:48:59;15.23;;;8.77;;
74158;SDS011;62511;47.970;11.774;2022-08-06T09:51:25;15.35;;;9.68;;
74158;SDS011;62511;47.970;11.774;2022-08-06T09:53:56;17.20;;;10.18;;
74158;SDS011;62511;47.970;11.774;2022-08-06T09:56:22;14.68;;;9.30;;
74158;SDS011;62511;47.970;11.774;2022-08-06T09:58:48;18.83;;;10.30;;
74158;SDS011;62511;47.970;11.774;2022-08-06T10:01:19;19.25;;;11.85;;
74158;SDS011;62511;47.970;11.774;2022-08-06T10:03:45;21.20;;;12.27;;
74158;SDS011;62511;47.970;11.774;2022-08-06T10:06:12;23.50;;;12.90;;
74158;SDS011;62511;47.970;11.774;2022-08-06T10:11:05;21.63;;;11.43;;
74158;SDS011;62511;47.970;11.774;2022-08-06T10:13:32;19.48;;;11.48;;
74158;SDS011;62511;47.970;11.774;2022-08-06T10:15:59;18.33;;;10.77;;
74158;SDS011;62511;47.970;11.774;2022-08-06T10:21:01;16.77;;;10.52;;
74158;SDS011;62511;47.970;11.774;2022-08-06T10:23:29;19.40;;;10.35;;
74158;SDS011;62511;47.970;11.774;2022-08-06T10:25:56;16.48;;;10.23;;
74158;SDS011;62511;47.970;11.774;2022-08-06T10:28:23;15.18;;;10.07;;
74158;SDS011;62511;47.970;11.774;2022-08-06T10:30:51;13.77;;;9.07;;
74158;SDS011;62511;47.970;11.774;2022-08-06T10:35:45;13.18;;;8.32;;
74158;SDS011;62511;47.970;11.774;2022-08-06T10:38:13;13.73;;;8.70;;
74158;SDS011;62511;47.970;11.774;2022-08-06T10:40:41;13.63;;;9.10;;
74158;SDS011;62511;47.970;11.774;2022-08-06T10:43:08;14.48;;;9.27;;
74158;SDS011;62511;47.970;11.774;2022-08-06T10:45:34;15.40;;;9.80;;
74158;SDS011;62511;47.970;11.774;2022-08-06T10:48:00;15.63;;;10.05;;
74158;SDS011;62511;47.970;11.774;2022-08-06T10:50:29;17.35;;;10.02;;
74158;SDS011;62511;47.970;11.774;2022-08-06T10:52:55;14.32;;;8.65;;
74158;SDS011;62511;47.970;11.774;2022-08-06T10:55:22;16.40;;;10.25;;
74158;SDS011;62511;47.970;11.774;2022-08-06T10:57:48;17.45;;;11.35;;
74158;SDS011;62511;47.970;11.774;2022-08-06T11:00:14;18.73;;;10.77;;
74158;SDS011;62511;47.970;11.774;2022-08-06T11:05:27;19.15;;;10.75;;
74158;SDS011;62511;47.970;11.774;2022-08-06T11:15:40;17.50;;;11.70;;
74158;SDS011;62511;47.970;11.774;2022-08-06T11:18:07;17.25;;;11.07;;
74158;SDS011;62511;47.970;11.774;2022-08-06T11:23:21;12.82;;;8.05;;
74158;SDS011;62511;47.970;11.774;2022-08-06T11:25:48;12.82;;;8.73;;
74158;SDS011;62511;47.970;11.774;2022-08-06T11:28:19;13.18;;;8.65;;
74158;SDS011;62511;47.970;11.774;2022-08-06T11:30:49;13.95;;;8.50;;
74158;SDS011;62511;47.970;11.774;2022-08-06T11:33:20;11.90;;;8.73;;
74158;SDS011;62511;47.970;11.774;2022-08-06T11:35:49;14.77;;;9.32;;
74158;SDS011;62511;47.970;11.774;2022-08-06T11:41:06;13.52;;;9.07;;
74158;SDS011;62511;47.970;11.774;2022-08-06T11:43:44;15.05;;;9.60;;
74158;SDS011;62511;47.970;11.774;2022-08-06T11:54:23;9.82;;;7.55;;
74158;SDS011;62511;47.970;11.774;2022-08-06T11:59:26;12.05;;;7.90;;
74158;SDS011;62511;47.970;11.774;2022-08-06T12:01:52;10.55;;;7.85;;
74158;SDS011;62511;47.970;11.774;2022-08-06T12:07:16;9.65;;;6.32;;
74158;SDS011;62511;47.970;11.774;2022-08-06T12:09:46;9.60;;;6.47;;
74158;SDS011;62511;47.970;11.774;2022-08-06T12:14:51;8.48;;;6.60;;
74158;SDS011;62511;47.970;11.774;2022-08-06T12:17:18;12.15;;;6.82;;
74158;SDS011;62511;47.970;11.774;2022-08-06T12:19:45;9.13;;;6.60;;
74158;SDS011;62511;47.970;11.774;2022-08-06T12:22:14;8.95;;;6.53;;
74158;SDS011;62511;47.970;11.774;2022-08-06T12:24:43;8.52;;;6.68;;
74158;SDS011;62511;47.970;11.774;2022-08-06T12:27:12;8.77;;;6.57;;
74158;SDS011;62511;47.970;11.774;2022-08-06T12:29:38;8.73;;;6.25;;
74158;SDS011;62511;47.970;11.774;2022-08-06T12:34:50;8.30;;;6.22;;
74158;SDS011;62511;47.970;11.774;2022-08-06T12:37:17;8.82;;;6.25;;
74158;SDS011;62511;47.970;11.774;2022-08-06T12:39:43;7.95;;;6.07;;
74158;SDS011;62511;47.970;11.774;2022-08-06T12:42:29;7.95;;;5.85;;
74158;SDS011;62511;47.970;11.774;2022-08-06T12:44:56;9.00;;;7.00;;
74158;SDS011;62511;47.970;11.774;2022-08-06T12:47:22;10.23;;;7.68;;
74158;SDS011;62511;47.970;11.774;2022-08-06T12:49:50;9.45;;;7.38;;
74158;SDS011;62511;47.970;11.774;2022-08-06T12:52:17;9.60;;;7.28;;
74158;SDS011;62511;47.970;11.774;2022-08-06T12:54:48;10.00;;;7.88;;
74158;SDS011;62511;47.970;11.774;2022-08-06T12:59:46;10.07;;;7.63;;
74158;SDS011;62511;47.970;11.774;2022-08-06T13:02:13;10.95;;;7.63;;
74158;SDS011;62511;47.970;11.774;2022-08-06T13:04:41;10.13;;;7.65;;
74158;SDS011;62511;47.970;11.774;2022-08-06T13:07:08;10.60;;;7.78;;
74158;SDS011;62511;47.970;11.774;2022-08-06T13:09:34;9.02;;;6.90;;
74158;SDS011;62511;47.970;11.774;2022-08-06T13:12:17;10.60;;;6.93;;
74158;SDS011;62511;47.970;11.774;2022-08-06T13:14:50;8.75;;;6.47;;
74158;SDS011;62511;47.970;11.774;2022-08-06T13:17:18;14.73;;;7.57;;
74158;SDS011;62511;47.970;11.774;2022-08-06T13:19:51;9.27;;;6.78;;
74158;SDS011;62511;47.970;11.774;2022-08-06T13:22:17;10.75;;;6.40;;
74158;SDS011;62511;47.970;11.774;2022-08-06T13:24:43;11.30;;;7.97;;
74158;SDS011;62511;47.970;11.774;2022-08-06T13:27:09;9.25;;;7.22;;
74158;SDS011;62511;47.970;11.774;2022-08-06T13:29:35;8.55;;;7.15;;
74158;SDS011;62511;47.970;11.774;2022-08-06T13:32:06;9.68;;;7.07;;
74158;SDS011;62511;47.970;11.774;2022-08-06T13:34:50;10.10;;;7.22;;
74158;SDS011;62511;47.970;11.774;2022-08-06T13:37:39;10.10;;;7.63;;
74158;SDS011;62511;47.970;11.774;2022-08-06T13:42:30;10.20;;;7.28;;
74158;SDS011;62511;47.970;11.774;2022-08-06T13:44:56;11.93;;;7.07;;
74158;SDS011;62511;47.970;11.774;2022-08-06T13:47:26;12.10;;;8.48;;
74158;SDS011;62511;47.970;11.774;2022-08-06T13:49:52;10.50;;;8.07;;
74158;SDS011;62511;47.970;11.774;2022-08-06T13:52:18;10.95;;;8.25;;
74158;SDS011;62511;47.970;11.774;2022-08-06T13:54:44;11.05;;;7.78;;
74158;SDS011;62511;47.970;11.774;2022-08-06T13:57:10;11.65;;;7.93;;
74158;SDS011;62511;47.970;11.774;2022-08-06T13:59:36;10.77;;;7.57;;
74158;SDS011;62511;47.970;11.774;2022-08-06T14:02:03;10.90;;;7.72;;
74158;SDS011;62511;47.970;11.774;2022-08-06T14:04:29;12.75;;;8.60;;
74158;SDS011;62511;47.970;11.774;2022-08-06T14:06:57;11.02;;;8.00;;
74158;SDS011;62511;47.970;11.774;2022-08-06T14:09:24;12.30;;;8.23;;
74158;SDS011;62511;47.970;11.774;2022-08-06T14:11:53;13.00;;;8.70;;
74158;SDS011;62511;47.970;11.774;2022-08-06T14:14:20;11.98;;;8.15;;
74158;SDS011;62511;47.970;11.774;2022-08-06T14:16:46;13.57;;;9.00;;
74158;SDS011;62511;47.970;11.774;2022-08-06T14:19:12;11.75;;;8.30;;
74158;SDS011;62511;47.970;11.774;2022-08-06T14:21:38;13.20;;;9.02;;
74158;SDS011;62511;47.970;11.774;2022-08-06T14:24:04;11.88;;;8.05;;
74158;SDS011;62511;47.970;11.774;2022-08-06T14:26:30;11.00;;;8.13;;
74158;SDS011;62511;47.970;11.774;2022-08-06T14:28:56;10.82;;;8.45;;
74158;SDS011;62511;47.970;11.774;2022-08-06T14:31:23;11.50;;;7.30;;
74158;SDS011;62511;47.970;11.774;2022-08-06T14:33:49;11.35;;;7.70;;
74158;SDS011;62511;47.970;11.774;2022-08-06T14:36:15;11.15;;;7.65;;
74158;SDS011;62511;47.970;11.774;2022-08-06T14:38:42;10.52;;;7.72;;
74158;SDS011;62511;47.970;11.774;2022-08-06T14:41:10;10.50;;;7.47;;
74158;SDS011;62511;47.970;11.774;2022-08-06T14:43:54;12.57;;;7.63;;
74158;SDS011;62511;47.970;11.774;2022-08-06T14:46:39;11.00;;;7.75;;
74158;SDS011;62511;47.970;11.774;2022-08-06T14:49:05;10.35;;;7.47;;
74158;SDS011;62511;47.970;11.774;2022-08-06T14:51:31;10.38;;;8.07;;
74158;SDS011;62511;47.970;11.774;2022-08-06T14:53:57;15.52;;;9.00;;
74158;SDS011;62511;47.970;11.774;2022-08-06T14:56:23;11.65;;;8.32;;
74158;SDS011;62511;47.970;11.774;2022-08-06T14:58:49;11.30;;;8.40;;
74158;SDS011;62511;47.970;11.774;2022-08-06T15:01:15;11.65;;;8.25;;
74158;SDS011;62511;47.970;11.774;2022-08-06T15:03:41;12.55;;;8.55;;
74158;SDS011;62511;47.970;11.774;2022-08-06T15:06:07;12.95;;;8.07;;
74158;SDS011;62511;47.970;11.774;2022-08-06T15:08:33;11.75;;;7.80;;
74158;SDS011;62511;47.970;11.774;2022-08-06T15:10:59;11.93;;;8.02;;
74158;SDS011;62511;47.970;11.774;2022-08-06T15:13:25;10.45;;;7.57;;
74158;SDS011;62511;47.970;11.774;2022-08-06T15:15:51;10.63;;;7.85;;
74158;SDS011;62511;47.970;11.774;2022-08-06T15:18:17;11.63;;;7.47;;
74158;SDS011;62511;47.970;11.774;2022-08-06T15:20:43;12.05;;;8.30;;
74158;SDS011;62511;47.970;11.774;2022-08-06T15:23:09;10.18;;;6.97;;
74158;SDS011;62511;47.970;11.774;2022-08-06T15:25:35;10.15;;;7.35;;
74158;SDS011;62511;47.970;11.774;2022-08-06T15:28:01;12.32;;;8.13;;
74158;SDS011;62511;47.970;11.774;2022-08-06T15:30:28;12.20;;;7.88;;
74158;SDS011;62511;47.970;11.774;2022-08-06T15:32:53;9.32;;;7.45;;
74158;SDS011;62511;47.970;11.774;2022-08-06T15:35:20;10.30;;;8.10;;
74158;SDS011;62511;47.970;11.774;2022-08-06T15:37:47;12.52;;;7.80;;
74158;SDS011;62511;47.970;11.774;2022-08-06T15:40:13;10.90;;;7.82;;
74158;SDS011;62511;47.970;11.774;2022-08-06T15:42:39;10.30;;;7.25;;
74158;SDS011;62511;47.970;11.774;2022-08-06T15:45:06;11.07;;;7.40;;
74158;SDS011;62511;47.970;11.774;2022-08-06T15:47:32;9.60;;;6.40;;
74158;SDS011;62511;47.970;11.774;2022-08-06T15:49:58;11.60;;;7.47;;
74158;SDS011;62511;47.970;11.774;2022-08-06T15:52:25;10.95;;;7.88;;
74158;SDS011;62511;47.970;11.774;2022-08-06T15:54:51;10.90;;;7.47;;
74158;SDS011;62511;47.970;11.774;2022-08-06T15:57:18;10.48;;;7.07;;
74158;SDS011;62511;47.970;11.774;2022-08-06T15:59:47;8.80;;;7.05;;